Time,TemperatureF,DewpointF,PressureIn,WindDirection,WindDirectionDegrees,WindSpeedMPH,WindSpeedGustMPH,Humidity,HourlyPrecipIn,Conditions,Clouds,dailyrainin,SoftwareType,DateUTC
2013-06-03 00:09:00,52.0,50.0,29.71,SW,222,10.0,17.0,93,0.00,,,0.00,weatherlink.com 1.10,2013-06-03 07:09:00,
2013-06-03 00:24:00,52.2,50.0,29.71,SSW,195,6.0,13.0,93,0.00,,,0.00,weatherlink.com 1.10,2013-06-03 07:24:00,
2013-06-03 00:39:00,52.3,50.0,29.71,SSW,208,10.0,14.0,93,0.00,,,0.00,weatherlink.com 1.10,2013-06-03 07:39:00,
2013-06-03 00:54:00,52.3,50.0,29.71,SW,214,9.0,13.0,93,0.00,,,0.00,weatherlink.com 1.10,2013-06-03 07:54:00,
2013-06-03 01:09:00,52.4,51.0,29.71,WSW,257,8.0,13.0,93,0.00,,,0.00,weatherlink.com 1.10,2013-06-03 08:09:00,
2013-06-03 01:24:00,52.6,51.0,29.71,SW,234,7.0,14.0,93,0.00,,,0.00,weatherlink.com 1.10,2013-06-03 08:24:00,
2013-06-03 01:39:00,52.5,51.0,29.71,South,179,7.0,11.0,93,0.00,,,0.00,weatherlink.com 1.10,2013-06-03 08:39:00,
2013-06-03 01:54:00,52.5,51.0,29.71,SW,234,7.0,11.0,93,0.00,,,0.00,weatherlink.com 1.10,2013-06-03 08:54:00,
2013-06-03 02:09:00,52.5,51.0,29.71,South,190,5.0,12.0,93,0.00,,,0.00,weatherlink.com 1.10,2013-06-03 09:09:00,
2013-06-03 02:24:00,52.4,51.0,29.71,SW,221,7.0,12.0,93,0.00,,,0.00,weatherlink.com 1.10,2013-06-03 09:24:00,
2013-06-03 02:39:00,52.5,51.0,29.71,WSW,245,2.0,11.0,93,0.00,,,0.00,weatherlink.com 1.10,2013-06-03 09:39:00,
2013-06-03 02:54:00,52.4,51.0,29.72,South,180,6.0,11.0,93,0.00,,,0.00,weatherlink.com 1.10,2013-06-03 09:54:00,
2013-06-03 03:09:00,52.4,51.0,29.72,SW,220,3.0,13.0,93,0.00,,,0.00,weatherlink.com 1.10,2013-06-03 10:09:00,
2013-06-03 03:25:00,52.5,51.0,29.72,SE,143,5.0,12.0,93,0.00,,,0.00,weatherlink.com 1.10,2013-06-03 10:25:00,
2013-06-03 03:39:00,52.4,51.0,29.72,SW,225,5.0,13.0,93,0.00,,,0.00,weatherlink.com 1.10,2013-06-03 10:39:00,
2013-06-03 03:54:00,52.4,51.0,29.72,West,281,5.0,12.0,93,0.00,,,0.00,weatherlink.com 1.10,2013-06-03 10:54:00,
2013-06-03 04:09:00,52.4,50.0,29.73,SW,222,3.0,10.0,92,0.00,,,0.00,weatherlink.com 1.10,2013-06-03 11:09:00,
2013-06-03 04:24:00,52.5,50.0,29.73,WSW,242,4.0,7.0,92,0.00,,,0.00,weatherlink.com 1.10,2013-06-03 11:24:00,
2013-06-03 04:39:00,52.3,50.0,29.72,SSW,201,5.0,9.0,92,0.00,,,0.00,weatherlink.com 1.10,2013-06-03 11:39:00,
2013-06-03 04:54:00,52.5,50.0,29.73,WSW,242,7.0,9.0,92,0.00,,,0.00,weatherlink.com 1.10,2013-06-03 11:54:00,
2013-06-03 05:09:00,52.6,50.0,29.73,SSW,212,5.0,8.0,92,0.00,,,0.00,weatherlink.com 1.10,2013-06-03 12:09:00,
2013-06-03 05:24:00,52.6,50.0,29.73,SSW,205,6.0,8.0,92,0.00,,,0.00,weatherlink.com 1.10,2013-06-03 12:24:00,
2013-06-03 05:39:00,52.8,51.0,29.73,SW,215,6.0,11.0,92,0.00,,,0.00,weatherlink.com 1.10,2013-06-03 12:39:00,
2013-06-03 05:54:00,53.0,51.0,29.73,South,190,6.0,9.0,92,0.00,,,0.00,weatherlink.com 1.10,2013-06-03 12:54:00,
2013-06-03 06:09:00,53.2,51.0,29.74,SSW,207,4.0,8.0,92,0.00,,,0.00,weatherlink.com 1.10,2013-06-03 13:09:00,
2013-06-03 06:24:00,53.3,51.0,29.74,WSW,238,7.0,9.0,91,0.00,,,0.00,weatherlink.com 1.10,2013-06-03 13:24:00,
2013-06-03 06:39:00,53.5,51.0,29.74,WSW,242,4.0,9.0,91,0.00,,,0.00,weatherlink.com 1.10,2013-06-03 13:39:00,
2013-06-03 06:54:00,53.8,51.0,29.74,SSW,196,6.0,11.0,91,0.00,,,0.00,weatherlink.com 1.10,2013-06-03 13:54:00,
2013-06-03 07:09:00,54.2,51.0,29.75,SSW,200,2.0,8.0,90,0.00,,,0.00,weatherlink.com 1.10,2013-06-03 14:09:00,
2013-06-03 07:24:00,54.5,51.0,29.75,SSE,156,2.0,9.0,89,0.00,,,0.00,weatherlink.com 1.10,2013-06-03 14:24:00,
2013-06-03 07:39:00,54.8,51.0,29.75,SW,236,3.0,11.0,88,0.00,,,0.00,weatherlink.com 1.10,2013-06-03 14:39:00,
2013-06-03 07:54:00,55.1,52.0,29.76,WSW,239,6.0,9.0,88,0.00,,,0.00,weatherlink.com 1.10,2013-06-03 14:54:00,
2013-06-03 08:09:00,55.3,52.0,29.76,WSW,239,3.0,10.0,87,0.00,,,0.00,weatherlink.com 1.10,2013-06-03 15:09:00,
2013-06-03 08:24:00,55.9,52.0,29.77,WNW,288,5.0,9.0,87,0.00,,,0.00,weatherlink.com 1.10,2013-06-03 15:24:00,
2013-06-03 08:40:00,56.3,52.0,29.77,WSW,245,8.0,12.0,86,0.00,,,0.00,weatherlink.com 1.10,2013-06-03 15:40:00,
2013-06-03 08:55:00,56.9,53.0,29.78,SSW,207,4.0,10.0,85,0.00,,,0.00,weatherlink.com 1.10,2013-06-03 15:55:00,
2013-06-03 09:10:00,57.1,53.0,29.78,SW,218,2.0,10.0,85,0.00,,,0.00,weatherlink.com 1.10,2013-06-03 16:10:00,
2013-06-03 09:25:00,57.5,52.0,29.78,WSW,252,7.0,10.0,83,0.00,,,0.00,weatherlink.com 1.10,2013-06-03 16:25:00,
2013-06-03 09:40:00,58.3,53.0,29.79,WSW,257,6.0,11.0,82,0.00,,,0.00,weatherlink.com 1.10,2013-06-03 16:40:00,
2013-06-03 09:55:00,58.3,53.0,29.79,West,264,3.0,10.0,81,0.00,,,0.00,weatherlink.com 1.10,2013-06-03 16:55:00,
2013-06-03 10:10:00,59.3,52.0,29.79,WSW,245,11.0,11.0,78,0.00,,,0.00,weatherlink.com 1.10,2013-06-03 17:10:00,
2013-06-03 10:25:00,59.1,52.0,29.80,WSW,239,5.0,12.0,78,0.00,,,0.00,weatherlink.com 1.10,2013-06-03 17:25:00,
2013-06-03 10:40:00,59.8,53.0,29.80,SSW,205,3.0,12.0,77,0.00,,,0.00,weatherlink.com 1.10,2013-06-03 17:40:00,
2013-06-03 10:55:00,59.6,52.0,29.81,SW,235,6.0,12.0,77,0.00,,,0.00,weatherlink.com 1.10,2013-06-03 17:55:00,
2013-06-03 11:10:00,59.8,52.0,29.81,SW,217,6.0,12.0,76,0.00,,,0.00,weatherlink.com 1.10,2013-06-03 18:10:00,
2013-06-03 11:25:00,60.2,52.0,29.81,WSW,252,7.0,15.0,75,0.00,,,0.00,weatherlink.com 1.10,2013-06-03 18:25:00,
2013-06-03 11:40:00,60.3,52.0,29.81,WSW,255,7.0,11.0,74,0.00,,,0.00,weatherlink.com 1.10,2013-06-03 18:40:00,
2013-06-03 11:55:00,60.3,52.0,29.81,SW,232,7.0,14.0,75,0.00,,,0.00,weatherlink.com 1.10,2013-06-03 18:55:00,
2013-06-03 12:10:00,60.8,52.0,29.82,South,183,6.0,14.0,74,0.00,,,0.00,weatherlink.com 1.10,2013-06-03 19:10:00,
2013-06-03 12:25:00,61.3,53.0,29.82,WSW,244,9.0,15.0,73,0.00,,,0.00,weatherlink.com 1.10,2013-06-03 19:25:00,
2013-06-03 12:40:00,61.7,53.0,29.82,SW,233,6.0,15.0,74,0.00,,,0.00,weatherlink.com 1.10,2013-06-03 19:40:00,
2013-06-03 12:55:00,61.6,53.0,29.82,WSW,249,7.0,15.0,74,0.00,,,0.00,weatherlink.com 1.10,2013-06-03 19:55:00,
2013-06-03 13:10:00,61.6,53.0,29.82,SSW,203,7.0,19.0,74,0.00,,,0.00,weatherlink.com 1.10,2013-06-03 20:10:00,
2013-06-03 13:25:00,61.5,52.0,29.82,SW,217,7.0,14.0,72,0.00,,,0.00,weatherlink.com 1.10,2013-06-03 20:25:00,
2013-06-03 13:40:00,61.8,53.0,29.82,SSE,152,4.0,14.0,72,0.00,,,0.00,weatherlink.com 1.10,2013-06-03 20:40:00,
2013-06-03 13:55:00,61.9,53.0,29.82,SW,215,7.0,15.0,72,0.00,,,0.00,weatherlink.com 1.10,2013-06-03 20:55:00,
2013-06-03 14:10:00,62.1,53.0,29.83,West,260,13.0,16.0,71,0.00,,,0.00,weatherlink.com 1.10,2013-06-03 21:10:00,
2013-06-03 14:25:00,62.1,53.0,29.83,North,8,4.0,17.0,71,0.00,,,0.00,weatherlink.com 1.10,2013-06-03 21:25:00,
2013-06-03 14:40:00,62.0,52.0,29.83,WSW,245,10.0,16.0,71,0.00,,,0.00,weatherlink.com 1.10,2013-06-03 21:40:00,
2013-06-03 14:55:00,61.7,53.0,29.83,SW,229,5.0,18.0,72,0.00,,,0.00,weatherlink.com 1.10,2013-06-03 21:55:00,
2013-06-03 15:10:00,61.6,52.0,29.83,SSW,212,15.0,19.0,72,0.00,,,0.00,weatherlink.com 1.10,2013-06-03 22:10:00,
2013-06-03 15:25:00,61.5,52.0,29.82,SSE,160,11.0,18.0,72,0.00,,,0.00,weatherlink.com 1.10,2013-06-03 22:25:00,
2013-06-03 15:40:00,61.9,52.0,29.82,WNW,283,7.0,18.0,71,0.00,,,0.00,weatherlink.com 1.10,2013-06-03 22:40:00,
2013-06-03 16:10:00,62.2,52.0,29.82,SSW,198,10.0,17.0,70,0.00,,,0.00,weatherlink.com 1.10,2013-06-03 23:10:00,
2013-06-03 16:25:00,61.3,52.0,29.82,SSE,165,8.0,19.0,72,0.00,,,0.00,weatherlink.com 1.10,2013-06-03 23:25:00,
2013-06-03 16:40:00,60.7,52.0,29.82,SW,215,10.0,17.0,74,0.00,,,0.00,weatherlink.com 1.10,2013-06-03 23:40:00,
2013-06-03 16:55:00,59.9,52.0,29.82,West,271,9.0,18.0,75,0.00,,,0.00,weatherlink.com 1.10,2013-06-03 23:55:00,
2013-06-03 17:10:00,59.9,52.0,29.82,SSW,204,13.0,16.0,76,0.00,,,0.00,weatherlink.com 1.10,2013-06-04 00:10:00,
2013-06-03 17:25:00,59.3,52.0,29.82,WSW,245,8.0,18.0,77,0.00,,,0.00,weatherlink.com 1.10,2013-06-04 00:25:00,
2013-06-03 17:40:00,59.7,52.0,29.82,SSW,206,9.0,16.0,76,0.00,,,0.00,weatherlink.com 1.10,2013-06-04 00:40:00,
2013-06-03 17:55:00,59.5,52.0,29.81,SSW,193,10.0,21.0,77,0.00,,,0.00,weatherlink.com 1.10,2013-06-04 00:55:00,
2013-06-03 18:11:00,59.4,53.0,29.81,SSW,207,9.0,16.0,78,0.00,,,0.00,weatherlink.com 1.10,2013-06-04 01:11:00,
2013-06-03 18:26:00,59.3,52.0,29.81,SW,223,11.0,15.0,77,0.00,,,0.00,weatherlink.com 1.10,2013-06-04 01:26:00,
2013-06-03 18:41:00,58.9,52.0,29.81,South,174,7.0,18.0,77,0.00,,,0.00,weatherlink.com 1.10,2013-06-04 01:41:00,
2013-06-03 18:56:00,58.2,52.0,29.81,SSW,211,10.0,14.0,79,0.00,,,0.00,weatherlink.com 1.10,2013-06-04 01:56:00,
2013-06-03 19:11:00,57.8,52.0,29.81,WSW,242,10.0,15.0,80,0.00,,,0.00,weatherlink.com 1.10,2013-06-04 02:11:00,
2013-06-03 19:26:00,57.6,52.0,29.82,South,186,5.0,15.0,80,0.00,,,0.00,weatherlink.com 1.10,2013-06-04 02:26:00,
2013-06-03 19:41:00,56.9,52.0,29.83,SSW,201,11.0,16.0,82,0.00,,,0.00,weatherlink.com 1.10,2013-06-04 02:41:00,
2013-06-03 19:56:00,56.2,51.0,29.83,SSW,200,7.0,14.0,83,0.00,,,0.00,weatherlink.com 1.10,2013-06-04 02:56:00,
2013-06-03 20:11:00,55.8,51.0,29.83,South,184,5.0,14.0,83,0.00,,,0.00,weatherlink.com 1.10,2013-06-04 03:11:00,
2013-06-03 20:26:00,55.2,51.0,29.83,SSW,193,7.0,12.0,85,0.00,,,0.00,weatherlink.com 1.10,2013-06-04 03:26:00,
2013-06-03 20:56:00,54.5,50.0,29.84,SSW,207,5.0,14.0,86,0.00,,,0.00,weatherlink.com 1.10,2013-06-04 03:56:00,
2013-06-03 21:41:00,54.3,51.0,29.84,South,177,4.0,10.0,87,0.00,,,0.00,weatherlink.com 1.10,2013-06-04 04:41:00,
2013-06-03 22:25:00,54.2,51.0,29.85,SW,232,3.0,7.0,88,0.00,,,0.00,weatherlink.com 1.10,2013-06-04 05:25:00,
2013-06-03 22:41:00,54.2,51.0,29.85,SSW,193,1.0,5.0,88,0.00,,,0.00,weatherlink.com 1.10,2013-06-04 05:41:00,
2013-06-03 22:56:00,54.0,51.0,29.85,SW,219,2.0,6.0,88,0.00,,,0.00,weatherlink.com 1.10,2013-06-04 05:56:00,
2013-06-03 23:11:00,53.9,51.0,29.85,WSW,255,5.0,6.0,88,0.00,,,0.00,weatherlink.com 1.10,2013-06-04 06:11:00,
2013-06-03 23:41:00,53.7,50.0,29.85,SW,222,4.0,6.0,88,0.00,,,0.00,weatherlink.com 1.10,2013-06-04 06:41:00,
2013-06-03 23:56:00,53.7,51.0,29.85,WSW,242,0.0,6.0,89,0.00,,,0.00,weatherlink.com 1.10,2013-06-04 06:56:00,